Richmond, MA

5:47 PM EST on November 24, 2014 (GMT -0500)
KMARICHM2 | Change Station
CLOSE
Current Station
Personal Weather Station
Location: Richmond, MA
Elevation: 1073 ft
Nearby Weather Stations
Active Advisory: Winter Storm Watch

Elev 1073 ft 42.36 °N, 73.37 °W | Updated 48 seconds ago

Overcast
Overcast
60.2 °F
Feels Like 60.2 °F
N
4.0
Wind Variable Wind from SW
Gusts 7.0 mph

Today
High -- | Low -- °F
--% Chance of Precip.
Yesterday
High -- | Low -- °F
Precip. -- in
6:55 AM 4:24 PM
Waxing Crescent, 7% visible
Pressure 29.51 in
Visibility 10.0 miles
Clouds Few 3500 ft
Scattered Clouds 5000 ft
Mostly Cloudy 6000 ft
Dew Point 46 °F
Humidity 59%
Rainfall 0.49 in
Snow Depth Not available.
UV 0 out of 12
Pollen .10 out of 12
Air Quality Not available.
Flu Activity Not available.
METAR KPSF 242154Z AUTO 17012KT 10SM FEW035 SCT050 BKN060 16/13 A2954 RMK AO2 SLP991 T01610128

More Conditions Fewer Conditions

Pressure 29.51 in
Visibility 10.0 miles
Clouds Few 3500 ft
Scattered Clouds 5000 ft
Mostly Cloudy 6000 ft
Dew Point 46 °F
Humidity 59%
Rainfall 0.49 in
Snow Depth Not available.
UV 0 out of 12
Pollen .10 out of 12
Air Quality Not available.
Flu Activity Not available.
METAR KPSF 242154Z AUTO 17012KT 10SM FEW035 SCT050 BKN060 16/13 A2954 RMK AO2 SLP991 T01610128

More Conditions Fewer Conditions

10-Day Weather Forecast

Almanac

Astronomy

Nov. 24, 2014 Rise Set
Actual Time
Civil Twilight
Nautical Twilight
Astronomical Twilight
Moon
Length of Visible Light
Length of Day
Tomorrow will be .
, % of the Moon is Illuminated

Today's Extremes

State Highs State Lows

Community

WunderPhotos

Upload Photos

1,773,427 photos uploaded!

WunderBlogs® & News

Nearby

Air Quality

  Air Quality AQ Index Pollutant
Not available.

Snow Depth

Station Depth Elevation

Earthquake Activity

City Distance Mag. Time & Date
Minimum magnitude displayed is 2.5.

Coastal Water Temperatures

Place Temperature

Nearby Weather Stations